Kennewick, Washington
Current Conditions -  °F | °C
As of 11:53 AM on Saturday 25 Oct 2014 (Local Time) from KPSC Reporting Station
Scattered Clouds Scattered Clouds  
Wind Chill: 53°   Ceiling: Unl
Heat Index: 53°   Visibility: 8mi
Dew Point: 49°   Wind: 7mph
Humidity: 86%   Direction: 340°NNW
Pressure: 29.59"   Gusts: NA
Location:  46.21°N, 119.11°W
Report Text: KPSC 251853Z 34006KT 8SM SCT012 12/09 A2959 RMK AO2 SLP021 T01170094
Loading
Personal Weather Stations






























Interactive Weather Map New forecast layout! Learn more

10-Day Weather Forecast

Advertisements
Track Severe Weather on mobile